Time;durP1;ratioP1;P1;durP2;ratioP2;P2;SDS_P1;SDS_P2;PMS_P1;PMS_P2;Temp;Humidity;BMP_temperature;BMP_pressure;BME280_temperature;BME280_humidity;BME280_pressure;Samples;Min_cycle;Max_cycle;Signal;HPM_P1;HPM_P2
2023/04/02 00:01:45;;;;;;;11.63;9.17;;;6.60;99.90;;;;;;5095110;28;20173;-72
2023/04/02 00:04:14;;;;;;;13.63;9.27;;;6.60;99.90;;;;;;5096163;28;20248;-72
2023/04/02 00:06:44;;;;;;;12.07;9.83;;;6.60;99.90;;;;;;5094977;28;20271;-74
2023/04/02 00:09:12;;;;;;;12.40;9.80;;;6.60;99.90;;;;;;5094818;28;20177;-72
2023/04/02 00:11:45;;;;;;;12.60;10.40;;;6.50;99.90;;;;;;5095113;28;20536;-72
2023/04/02 00:14:33;;;;;;;13.90;10.73;;;6.50;99.90;;;;;;5097131;28;20153;-72
2023/04/02 00:17:01;;;;;;;12.50;10.43;;;6.50;99.90;;;;;;5096713;28;20242;-72
2023/04/02 00:19:55;;;;;;;12.23;10.10;;;6.40;99.90;;;;;;5094655;28;20661;-72
2023/04/02 00:22:26;;;;;;;12.63;9.97;;;6.40;99.90;;;;;;5096233;28;20192;-72
2023/04/02 00:24:54;;;;;;;14.07;10.27;;;6.40;99.90;;;;;;5094825;28;20191;-72
2023/04/02 00:27:20;;;;;;;16.90;9.77;;;6.30;99.90;;;;;;5094527;28;20662;-72
2023/04/02 00:29:52;;;;;;;13.20;9.87;;;6.30;99.90;;;;;;5095768;28;20192;-72
2023/04/02 00:32:29;;;;;;;14.23;10.13;;;6.30;99.90;;;;;;5096009;28;20158;-72
2023/04/02 00:34:56;;;;;;;13.20;10.07;;;6.30;99.90;;;;;;5096209;28;20153;-72
2023/04/02 00:37:26;;;;;;;11.43;8.90;;;6.30;99.90;;;;;;5095961;28;20576;-72
2023/04/02 00:40:08;;;;;;;11.63;9.53;;;6.30;99.90;;;;;;5095654;28;20193;-72
2023/04/02 00:42:38;;;;;;;11.27;9.10;;;6.20;99.90;;;;;;5094194;28;20169;-72
2023/04/02 00:45:17;;;;;;;12.23;9.13;;;6.20;99.90;;;;;;5096224;28;20161;-72
2023/04/02 00:47:43;;;;;;;11.63;9.57;;;6.20;99.90;;;;;;5096255;28;20546;-72
2023/04/02 00:50:14;;;;;;;13.87;9.73;;;6.20;99.90;;;;;;5093324;28;20266;-72
2023/04/02 00:52:44;;;;;;;12.67;10.30;;;6.20;99.90;;;;;;5094079;28;20714;-72
2023/04/02 00:55:18;;;;;;;10.37;9.13;;;6.20;99.90;;;;;;5095470;28;20169;-72
2023/04/02 00:57:45;;;;;;;12.27;9.83;;;6.20;99.90;;;;;;5095204;28;20188;-73
2023/04/02 01:00:29;;;;;;;11.27;9.47;;;6.10;99.90;;;;;;5095434;28;20282;-72
2023/04/02 01:03:16;;;;;;;11.77;9.00;;;6.20;99.90;;;;;;5095731;28;20161;-72
2023/04/02 01:06:02;;;;;;;14.83;10.03;;;6.10;99.90;;;;;;5095624;28;20538;-72
2023/04/02 01:08:49;;;;;;;11.50;8.63;;;6.10;99.90;;;;;;5094024;28;20279;-72
2023/04/02 01:11:35;;;;;;;12.70;9.73;;;6.00;99.90;;;;;;5093903;28;20199;-72
2023/04/02 01:14:40;;;;;;;11.83;8.63;;;6.00;99.90;;;;;;5095946;28;20211;-72
2023/04/02 01:17:17;;;;;;;11.60;8.93;;;5.90;99.90;;;;;;5093897;28;20180;-71
2023/04/02 01:20:10;;;;;;;13.47;8.83;;;5.90;99.90;;;;;;5095003;28;20272;-72
2023/04/02 01:22:40;;;;;;;14.53;9.80;;;5.90;99.90;;;;;;5093692;28;20185;-72
2023/04/02 01:25:07;;;;;;;12.63;10.10;;;5.80;99.90;;;;;;5094975;28;20646;-72
2023/04/02 01:28:12;;;;;;;14.77;10.37;;;5.80;99.90;;;;;;5095014;28;20663;-72
2023/04/02 01:30:38;;;;;;;12.23;9.70;;;5.90;99.90;;;;;;5093468;28;20214;-72
2023/04/02 01:33:05;;;;;;;13.03;10.20;;;5.80;99.90;;;;;;5094873;28;20188;-72
2023/04/02 01:35:37;;;;;;;12.93;9.93;;;5.80;99.90;;;;;;5094931;28;20180;-72
2023/04/02 01:38:06;;;;;;;10.80;8.87;;;5.80;99.90;;;;;;5095114;28;20496;-72
2023/04/02 01:40:58;;;;;;;11.03;9.07;;;5.70;99.90;;;;;;5093522;28;20197;-71
2023/04/02 01:43:40;;;;;;;10.63;9.27;;;5.60;99.90;;;;;;5094517;28;20613;-72
2023/04/02 01:46:24;;;;;;;13.93;9.60;;;5.60;99.90;;;;;;5095727;28;20211;-72
2023/04/02 01:48:52;;;;;;;12.93;9.90;;;5.60;99.90;;;;;;5094420;28;20187;-71
2023/04/02 01:51:28;;;;;;;12.70;10.00;;;5.60;99.90;;;;;;5094726;28;20663;-71
2023/04/02 01:53:55;;;;;;;12.30;9.73;;;5.60;99.90;;;;;;5094393;28;20212;-72
2023/04/02 01:56:21;;;;;;;13.30;9.90;;;5.60;99.90;;;;;;5095742;28;20173;-71
2023/04/02 01:58:48;;;;;;;11.07;9.70;;;5.60;99.90;;;;;;5096036;28;20192;-71
2023/04/02 02:01:18;;;;;;;12.73;10.17;;;5.60;99.90;;;;;;5107059;28;20219;-71
2023/04/02 02:03:44;;;;;;;11.20;9.27;;;5.50;99.90;;;;;;5105613;28;20235;-71
2023/04/02 02:06:15;;;;;;;10.97;9.57;;;5.50;99.90;;;;;;5094382;28;20177;-71
2023/04/02 02:08:52;;;;;;;13.40;9.67;;;5.40;99.90;;;;;;5092779;28;20173;-71
2023/04/02 02:11:21;;;;;;;14.80;10.80;;;5.40;99.90;;;;;;5094122;28;20198;-71
2023/04/02 02:13:54;;;;;;;13.63;10.70;;;5.40;99.90;;;;;;5092668;28;20177;-71
2023/04/02 02:16:21;;;;;;;12.43;10.70;;;5.30;99.90;;;;;;5094091;28;20181;-71
2023/04/02 02:18:56;;;;;;;13.00;10.50;;;5.30;99.90;;;;;;5094036;28;20173;-71
2023/04/02 02:21:43;;;;;;;12.40;10.00;;;5.30;99.90;;;;;;5094130;28;20196;-71
2023/04/02 02:24:18;;;;;;;13.73;10.70;;;5.30;99.90;;;;;;5093765;28;20181;-71
2023/04/02 02:26:47;;;;;;;14.73;10.40;;;5.30;99.90;;;;;;5093627;28;20731;-71
2023/04/02 02:29:17;;;;;;;14.03;11.00;;;5.30;99.90;;;;;;5092806;28;20217;-71
2023/04/02 02:31:46;;;;;;;13.33;10.60;;;5.30;99.90;;;;;;5092856;28;20176;-71
2023/04/02 02:34:19;;;;;;;12.73;10.57;;;5.30;99.90;;;;;;5094008;28;20169;-71
2023/04/02 02:37:01;;;;;;;14.97;10.60;;;5.30;99.90;;;;;;5094089;28;20165;-71
2023/04/02 02:39:45;;;;;;;11.27;9.67;;;5.30;99.90;;;;;;5094670;28;20188;-72
2023/04/02 02:42:24;;;;;;;13.73;9.93;;;5.30;99.90;;;;;;5092482;28;20226;-72
2023/04/02 02:44:52;;;;;;;13.20;10.73;;;5.30;99.90;;;;;;5093605;28;20161;-72
2023/04/02 02:47:23;;;;;;;11.13;9.60;;;5.30;99.90;;;;;;5093687;28;20242;-72
2023/04/02 02:49:52;;;;;;;12.67;10.73;;;5.30;99.90;;;;;;5092608;28;20196;-72
2023/04/02 02:52:33;;;;;;;12.90;10.03;;;5.20;99.90;;;;;;5092391;28;20185;-71
2023/04/02 02:54:59;;;;;;;12.00;10.17;;;5.20;99.90;;;;;;5093802;28;20238;-72
2023/04/02 02:57:28;;;;;;;11.43;10.23;;;5.20;99.90;;;;;;5093710;28;20332;-72
2023/04/02 02:59:57;;;;;;;13.00;10.17;;;5.10;99.90;;;;;;5093864;28;20270;-72
2023/04/02 03:02:25;;;;;;;12.20;9.53;;;5.10;99.90;;;;;;5092490;28;20679;-72
2023/04/02 03:04:52;;;;;;;11.17;9.47;;;5.10;99.90;;;;;;5092326;28;20184;-72
2023/04/02 03:07:20;;;;;;;12.13;10.23;;;5.10;99.90;;;;;;5093887;28;20193;-72
2023/04/02 03:10:11;;;;;;;14.70;10.00;;;5.00;99.90;;;;;;5093968;28;20547;-72
2023/04/02 03:12:55;;;;;;;11.87;10.60;;;5.00;99.90;;;;;;5092352;28;20185;-72
2023/04/02 03:15:56;;;;;;;12.07;10.03;;;5.00;99.90;;;;;;5096610;28;20168;-68
2023/04/02 03:18:21;;;;;;;11.37;9.53;;;5.00;99.90;;;;;;5087498;28;20185;-68
2023/04/02 03:20:52;;;;;;;14.27;11.40;;;4.90;99.90;;;;;;5097290;28;20185;-68
2023/04/02 03:23:28;;;;;;;13.57;11.20;;;4.90;99.90;;;;;;5097506;28;20184;-71
2023/04/02 03:26:07;;;;;;;12.10;10.77;;;4.90;99.90;;;;;;5096039;28;20185;-71
2023/04/02 03:28:38;;;;;;;16.00;11.50;;;4.90;99.90;;;;;;5097400;28;20250;-70
2023/04/02 03:31:16;;;;;;;13.43;11.27;;;4.90;99.90;;;;;;5095908;28;20193;-70
2023/04/02 03:33:55;;;;;;;16.80;11.53;;;4.90;99.90;;;;;;5097355;28;20160;-70
2023/04/02 03:36:29;;;;;;;12.83;11.07;;;4.80;99.90;;;;;;5095873;28;20200;-70
2023/04/02 03:39:00;;;;;;;15.57;11.27;;;4.90;99.90;;;;;;5095857;28;20169;-71
2023/04/02 03:41:49;;;;;;;17.73;11.73;;;5.00;99.90;;;;;;5096778;28;20199;-71
2023/04/02 03:44:30;;;;;;;12.73;10.80;;;4.90;99.90;;;;;;5095784;28;20315;-70
2023/04/02 03:47:09;;;;;;;16.60;12.13;;;4.90;99.90;;;;;;5097104;28;20650;-71
2023/04/02 03:49:41;;;;;;;15.00;11.90;;;4.90;99.90;;;;;;5096846;28;20280;-70
2023/04/02 03:52:13;;;;;;;12.57;10.53;;;4.90;99.90;;;;;;5095636;28;20173;-70
2023/04/02 03:54:40;;;;;;;15.77;10.67;;;4.80;99.90;;;;;;5095501;28;20630;-70
2023/04/02 03:57:20;;;;;;;14.93;11.43;;;4.80;99.90;;;;;;5095303;28;20181;-72
2023/04/02 03:59:55;;;;;;;13.97;11.27;;;4.70;99.90;;;;;;5095409;28;20216;-70
2023/04/02 04:02:46;;;;;;;14.67;12.20;;;4.70;99.90;;;;;;5097018;28;20152;-70
2023/04/02 04:05:34;;;;;;;12.77;11.37;;;4.70;99.90;;;;;;5096462;28;20575;-70
2023/04/02 04:08:05;;;;;;;14.00;11.50;;;4.70;99.90;;;;;;5096572;28;20185;-70
2023/04/02 04:10:31;;;;;;;23.40;13.03;;;4.60;99.90;;;;;;5094994;28;20193;-70
2023/04/02 04:13:11;;;;;;;16.50;12.53;;;4.60;99.90;;;;;;5094906;28;20177;-70
2023/04/02 04:16:12;;;;;;;17.77;13.77;;;4.50;99.90;;;;;;5094940;28;20180;-70
2023/04/02 04:19:09;;;;;;;16.27;12.83;;;4.50;99.90;;;;;;5083978;28;20272;-70
2023/04/02 04:21:38;;;;;;;20.03;12.87;;;4.50;99.90;;;;;;5095030;28;20517;-70
2023/04/02 04:24:07;;;;;;;19.57;14.47;;;4.50;99.90;;;;;;5096044;28;20197;-70
2023/04/02 04:26:42;;;;;;;21.30;15.27;;;4.50;99.90;;;;;;5094710;28;20200;-70
2023/04/02 04:29:39;;;;;;;22.43;14.53;;;4.40;99.90;;;;;;5096206;28;20163;-70
2023/04/02 04:32:26;;;;;;;20.43;14.83;;;4.40;99.90;;;;;;5096003;28;20154;-70
2023/04/02 04:35:12;;;;;;;19.77;14.87;;;4.40;99.90;;;;;;5096079;28;20165;-70
2023/04/02 04:37:41;;;;;;;21.83;14.77;;;4.30;99.90;;;;;;5096473;28;20165;-70
2023/04/02 04:40:27;;;;;;;24.50;15.30;;;4.30;99.90;;;;;;5095715;28;20676;-70
2023/04/02 04:42:59;;;;;;;20.60;14.90;;;4.30;99.90;;;;;;5094397;28;20176;-70
2023/04/02 04:46:11;;;;;;;23.07;15.00;;;4.30;99.90;;;;;;5096404;28;20157;-70
2023/04/02 04:48:50;;;;;;;27.80;16.00;;;4.30;99.90;;;;;;5073717;28;20680;-70
2023/04/02 04:51:30;;;;;;;20.73;15.20;;;4.30;99.90;;;;;;5073340;28;20676;-70
2023/04/02 04:53:56;;;;;;;21.83;14.57;;;4.30;99.90;;;;;;5074563;28;20216;-70
2023/04/02 04:56:28;;;;;;;18.73;14.67;;;4.20;99.90;;;;;;5073998;28;20638;-70
2023/04/02 04:59:06;;;;;;;23.03;16.60;;;4.30;99.90;;;;;;5075278;28;20181;-70
2023/04/02 05:01:40;;;;;;;19.90;15.10;;;4.30;99.90;;;;;;5073907;28;20196;-70
2023/04/02 05:04:12;;;;;;;19.47;14.73;;;4.20;99.90;;;;;;5074110;28;20541;-70
2023/04/02 05:06:41;;;;;;;23.67;14.90;;;4.20;99.90;;;;;;5073908;28;20208;-70
2023/04/02 05:09:18;;;;;;;25.30;15.80;;;4.10;99.90;;;;;;5073875;28;20178;-70
2023/04/02 05:12:04;;;;;;;27.60;15.10;;;4.00;99.90;;;;;;5075337;28;20157;-70
2023/04/02 05:15:03;;;;;;;25.67;14.43;;;4.00;99.90;;;;;;5075925;28;20158;-70
2023/04/02 05:17:52;;;;;;;29.33;15.87;;;4.00;99.90;;;;;;5072792;28;20259;-70
2023/04/02 05:20:30;;;;;;;21.07;15.13;;;4.00;99.90;;;;;;5073557;28;20209;-70
2023/04/02 05:23:09;;;;;;;23.47;14.47;;;4.10;99.90;;;;;;5083508;28;20192;-71
2023/04/02 05:25:37;;;;;;;21.73;14.97;;;4.10;99.90;;;;;;5095222;28;20158;-70
2023/04/02 05:28:06;;;;;;;26.03;16.20;;;4.10;99.90;;;;;;5095036;28;20197;-70
2023/04/02 05:31:00;;;;;;;22.97;15.40;;;4.00;99.90;;;;;;5093784;28;20547;-70
2023/04/02 05:33:32;;;;;;;24.43;15.83;;;3.90;99.90;;;;;;5089318;28;20322;-70
2023/04/02 05:36:00;;;;;;;23.70;15.13;;;4.00;99.90;;;;;;5094951;28;20177;-69
2023/04/02 05:38:29;;;;;;;28.03;16.73;;;3.90;99.90;;;;;;5093802;28;20536;-70
2023/04/02 05:41:21;;;;;;;20.10;14.53;;;3.90;99.90;;;;;;5093504;28;20200;-70
2023/04/02 05:43:50;;;;;;;18.07;14.37;;;3.90;99.90;;;;;;5094508;28;20194;-68
2023/04/02 05:46:21;;;;;;;21.97;16.00;;;4.00;99.90;;;;;;5094404;28;20177;-68
2023/04/02 05:48:54;;;;;;;24.40;15.10;;;4.00;99.90;;;;;;5094582;28;20164;-68
2023/04/02 05:51:41;;;;;;;22.67;15.00;;;4.00;99.90;;;;;;5094686;28;20571;-68
2023/04/02 05:54:26;;;;;;;25.33;15.77;;;3.90;99.90;;;;;;5112436;28;20187;-68
2023/04/02 05:56:57;;;;;;;23.00;15.13;;;3.90;99.90;;;;;;5113477;28;20577;-68
2023/04/02 05:59:32;;;;;;;22.47;15.33;;;3.90;99.90;;;;;;5113196;28;20188;-68
2023/04/02 06:02:23;;;;;;;22.70;15.07;;;3.90;99.90;;;;;;5114999;28;20247;-68
2023/04/02 06:05:14;;;;;;;23.33;14.60;;;3.90;99.90;;;;;;5115071;28;20644;-68
2023/04/02 06:08:10;;;;;;;26.53;15.60;;;3.90;99.90;;;;;;5114627;28;20745;-68
2023/04/02 06:10:58;;;;;;;24.67;16.00;;;3.90;99.90;;;;;;5113744;28;20228;-68
2023/04/02 06:13:25;;;;;;;26.40;14.67;;;3.90;99.90;;;;;;5114409;28;20168;-68
2023/04/02 06:15:51;;;;;;;24.20;15.50;;;3.90;99.90;;;;;;5114569;28;20160;-68
2023/04/02 06:18:22;;;;;;;21.90;14.10;;;4.00;99.90;;;;;;5112903;28;20180;-68
2023/04/02 06:20:47;;;;;;;21.40;14.60;;;3.90;99.90;;;;;;5112820;28;20208;-68
2023/04/02 06:23:31;;;;;;;19.83;14.37;;;4.00;99.90;;;;;;5101448;28;20192;-68
2023/04/02 06:26:02;;;;;;;18.43;13.63;;;4.00;99.90;;;;;;5094032;28;20169;-68
2023/04/02 06:28:47;;;;;;;21.07;13.60;;;4.00;99.90;;;;;;5093996;28;20181;-68
2023/04/02 06:31:45;;;;;;;21.77;13.87;;;4.00;99.90;;;;;;5093786;28;20185;-68
2023/04/02 06:34:21;;;;;;;22.73;14.07;;;4.00;99.90;;;;;;5094469;28;20184;-67
2023/04/02 06:36:49;;;;;;;19.40;13.27;;;4.00;99.90;;;;;;5092936;28;20165;-68
2023/04/02 06:39:21;;;;;;;18.50;12.03;;;4.00;99.90;;;;;;5092314;28;20169;-68
2023/04/02 06:42:01;;;;;;;19.97;12.23;;;3.90;99.90;;;;;;5093702;28;20158;-68
2023/04/02 06:44:32;;;;;;;20.50;11.97;;;3.90;99.90;;;;;;5093986;28;20165;-68
2023/04/02 06:47:04;;;;;;;18.80;12.33;;;3.80;99.90;;;;;;5092317;28;20327;-68
2023/04/02 06:49:36;;;;;;;18.17;11.87;;;3.80;99.90;;;;;;5095070;28;20197;-68
2023/04/02 06:52:05;;;;;;;17.83;11.67;;;3.80;99.90;;;;;;5096458;28;20250;-66
2023/04/02 06:54:31;;;;;;;18.53;10.37;;;3.80;99.90;;;;;;5097815;28;20153;-66
2023/04/02 06:56:56;;;;;;;15.97;11.43;;;3.80;99.90;;;;;;5096109;28;20272;-67
2023/04/02 06:59:27;;;;;;;17.30;11.17;;;3.80;99.90;;;;;;5097441;28;20188;-66
2023/04/02 07:02:25;;;;;;;15.93;11.03;;;3.80;99.90;;;;;;5097367;28;20250;-67
2023/04/02 07:04:51;;;;;;;13.97;10.77;;;3.80;99.90;;;;;;5082135;28;20551;-71
2023/04/02 07:07:17;;;;;;;18.50;11.03;;;3.80;99.90;;;;;;5097230;28;20193;-71
2023/04/02 07:09:43;;;;;;;14.47;11.70;;;3.80;99.90;;;;;;5096018;28;20195;-71
2023/04/02 07:12:12;;;;;;;13.87;11.13;;;3.80;99.90;;;;;;5097003;28;20218;-71
2023/04/02 07:14:38;;;;;;;15.40;12.10;;;3.80;99.90;;;;;;5097719;28;20173;-68
2023/04/02 07:17:04;;;;;;;12.10;10.57;;;3.90;99.90;;;;;;5097187;28;20169;-68
2023/04/02 07:19:30;;;;;;;12.43;10.27;;;3.90;99.90;;;;;;5097100;28;20692;-68
2023/04/02 07:21:55;;;;;;;11.83;9.53;;;3.90;99.90;;;;;;5097188;28;20590;-67
2023/04/02 07:24:21;;;;;;;12.23;9.53;;;3.90;99.90;;;;;;5096976;28;20614;-66
2023/04/02 07:26:47;;;;;;;16.17;10.73;;;3.90;99.90;;;;;;5096254;28;20203;-70
2023/04/02 07:29:15;;;;;;;12.90;10.07;;;4.00;99.90;;;;;;5095612;28;20177;-70
2023/04/02 07:31:41;;;;;;;14.93;10.40;;;4.00;99.90;;;;;;5095963;28;20177;-66
2023/04/02 07:34:07;;;;;;;17.33;9.87;;;4.00;99.90;;;;;;5095509;28;20165;-66
2023/04/02 07:36:33;;;;;;;15.33;9.30;;;4.00;99.90;;;;;;5095449;28;20181;-66
2023/04/02 07:38:59;;;;;;;13.23;9.73;;;3.90;99.90;;;;;;5097365;28;20196;-66
2023/04/02 07:41:25;;;;;;;12.00;9.37;;;3.90;99.90;;;;;;5096465;28;20606;-66
2023/04/02 07:43:51;;;;;;;13.23;10.03;;;3.90;99.90;;;;;;5095321;28;20207;-66
2023/04/02 07:46:18;;;;;;;12.37;9.80;;;3.90;99.90;;;;;;5096656;28;20182;-66
2023/04/02 07:48:45;;;;;;;14.67;9.80;;;3.90;99.90;;;;;;5096469;28;20168;-66
2023/04/02 07:51:15;;;;;;;11.50;9.07;;;3.90;99.90;;;;;;5096382;28;20624;-66
2023/04/02 07:53:41;;;;;;;14.90;9.30;;;3.90;99.90;;;;;;5095196;28;20177;-66
2023/04/02 07:56:07;;;;;;;11.70;9.27;;;3.90;99.90;;;;;;5094960;28;20664;-66
2023/04/02 07:58:33;;;;;;;11.00;9.43;;;3.90;99.90;;;;;;5094980;28;20649;-66
2023/04/02 08:01:00;;;;;;;20.73;10.00;;;4.00;99.90;;;;;;5094577;28;20222;-66
2023/04/02 08:03:26;;;;;;;12.10;8.83;;;4.00;99.90;;;;;;5096590;28;20162;-66
2023/04/02 08:05:55;;;;;;;13.07;9.10;;;4.00;99.90;;;;;;5095845;28;20169;-69
2023/04/02 08:08:28;;;;;;;10.07;8.67;;;4.00;99.90;;;;;;5094890;28;20684;-68
2023/04/02 08:10:54;;;;;;;12.77;9.37;;;4.00;99.90;;;;;;5094816;28;20193;-68
2023/04/02 08:13:20;;;;;;;13.47;8.93;;;4.00;99.90;;;;;;5094810;28;20192;-68
2023/04/02 08:15:45;;;;;;;13.10;9.70;;;4.00;99.90;;;;;;5096381;28;20173;-67
2023/04/02 08:18:12;;;;;;;11.87;8.57;;;4.00;99.90;;;;;;5094955;28;20255;-68
2023/04/02 08:20:38;;;;;;;12.83;8.03;;;4.00;99.90;;;;;;5096169;28;20193;-68
2023/04/02 08:23:05;;;;;;;10.77;8.80;;;4.10;99.90;;;;;;5096007;28;20181;-68
2023/04/02 08:25:34;;;;;;;9.23;8.30;;;4.10;99.90;;;;;;5095079;28;20177;-69
2023/04/02 08:28:01;;;;;;;13.20;8.43;;;4.10;99.90;;;;;;5096710;28;20197;-67
2023/04/02 08:30:26;;;;;;;12.17;9.50;;;4.10;99.90;;;;;;5095742;28;20608;-68
2023/04/02 08:32:52;;;;;;;13.07;8.83;;;4.10;99.90;;;;;;5094958;28;20205;-70
2023/04/02 08:35:18;;;;;;;12.87;9.27;;;4.10;99.90;;;;;;5095040;28;20176;-70
2023/04/02 08:37:44;;;;;;;9.97;8.30;;;4.10;99.90;;;;;;5095786;28;20547;-70
2023/04/02 08:40:28;;;;;;;17.07;10.10;;;4.10;99.90;;;;;;5096360;28;20232;-67
2023/04/02 08:42:56;;;;;;;15.43;8.90;;;4.10;99.90;;;;;;5094889;28;20223;-69
2023/04/02 08:45:45;;;;;;;10.27;8.50;;;4.10;99.90;;;;;;5094317;28;20208;-69
2023/04/02 08:48:14;;;;;;;15.50;9.47;;;4.20;99.90;;;;;;5094250;28;20239;-69
2023/04/02 08:50:43;;;;;;;10.73;8.23;;;4.30;99.90;;;;;;5094614;28;20224;-66
2023/04/02 08:53:18;;;;;;;13.83;8.40;;;4.30;99.90;;;;;;5098537;28;20588;-69
2023/04/02 08:56:16;;;;;;;10.43;8.13;;;4.30;99.90;;;;;;5096882;28;20278;-68
2023/04/02 08:58:53;;;;;;;13.23;8.17;;;4.30;99.90;;;;;;5094152;28;20239;-68
2023/04/02 09:01:38;;;;;;;13.70;8.23;;;4.30;99.90;;;;;;5096261;28;20253;-70
2023/04/02 09:04:11;;;;;;;9.33;7.63;;;4.30;99.90;;;;;;5095612;28;20211;-70
2023/04/02 09:06:37;;;;;;;11.80;8.10;;;4.30;99.90;;;;;;5094024;28;20189;-70
2023/04/02 09:09:03;;;;;;;8.73;7.40;;;4.30;99.90;;;;;;5095541;28;20227;-70
2023/04/02 09:11:50;;;;;;;8.23;7.30;;;4.40;99.90;;;;;;5094677;28;20727;-68
2023/04/02 09:14:28;;;;;;;8.13;7.30;;;4.40;99.90;;;;;;5094226;28;20177;-68
2023/04/02 09:16:59;;;;;;;11.77;8.60;;;4.40;99.90;;;;;;5095291;28;20166;-68
2023/04/02 09:19:39;;;;;;;11.47;8.10;;;4.40;99.90;;;;;;5095093;28;20158;-67
2023/04/02 09:22:07;;;;;;;10.57;8.07;;;4.50;99.90;;;;;;5095104;28;20597;-68
2023/04/02 09:24:34;;;;;;;10.43;7.37;;;4.50;99.90;;;;;;5093841;28;20208;-67
2023/04/02 09:27:01;;;;;;;9.63;7.97;;;4.50;99.90;;;;;;5095085;28;20661;-70
2023/04/02 09:29:43;;;;;;;9.67;8.30;;;4.50;99.90;;;;;;5095120;28;20158;-66
2023/04/02 09:32:38;;;;;;;11.97;8.60;;;4.50;99.90;;;;;;5094782;28;20165;-66
2023/04/02 09:35:12;;;;;;;10.57;7.67;;;4.60;99.90;;;;;;5094914;28;20162;-65
2023/04/02 09:37:39;;;;;;;12.97;8.93;;;4.60;99.90;;;;;;5093501;28;20169;-66
2023/04/02 09:40:27;;;;;;;9.23;8.33;;;4.70;99.90;;;;;;5094774;28;20614;-66
2023/04/02 09:43:09;;;;;;;9.97;8.30;;;4.80;99.90;;;;;;5095082;28;20163;-66
2023/04/02 09:45:35;;;;;;;10.93;8.80;;;4.80;99.90;;;;;;5095127;28;20165;-66
2023/04/02 09:48:01;;;;;;;13.63;9.10;;;4.80;99.90;;;;;;5094746;28;20661;-66
2023/04/02 09:50:32;;;;;;;11.17;8.03;;;4.80;99.90;;;;;;5094738;28;20232;-66
2023/04/02 09:52:58;;;;;;;9.10;8.20;;;4.80;99.90;;;;;;5094672;28;20186;-66
2023/04/02 09:55:29;;;;;;;9.10;7.23;;;4.80;99.90;;;;;;5094672;28;20169;-66
2023/04/02 09:58:13;;;;;;;11.70;8.20;;;4.80;99.90;;;;;;5093305;28;20276;-66
2023/04/02 10:00:49;;;;;;;9.23;8.30;;;4.90;99.90;;;;;;5094655;28;20257;-66
2023/04/02 10:03:24;;;;;;;8.63;7.53;;;4.80;99.90;;;;;;5093747;28;20173;-66
2023/04/02 10:06:03;;;;;;;8.57;7.67;;;4.90;99.90;;;;;;5093412;28;20238;-67
2023/04/02 10:08:31;;;;;;;7.70;6.90;;;4.90;99.90;;;;;;5094473;28;20191;-67
2023/04/02 10:11:00;;;;;;;11.10;7.23;;;5.10;99.90;;;;;;5095050;28;20192;-67
2023/04/02 10:13:35;;;;;;;8.73;7.30;;;5.20;99.90;;;;;;5094151;28;20198;-67
2023/04/02 10:16:09;;;;;;;9.03;7.17;;;5.20;99.90;;;;;;5093975;28;20145;-67
2023/04/02 10:18:57;;;;;;;8.57;7.13;;;5.30;99.90;;;;;;5093150;28;20225;-70
2023/04/02 10:21:30;;;;;;;8.07;6.87;;;5.30;99.90;;;;;;5094232;28;20184;-69
2023/04/02 10:23:58;;;;;;;7.53;6.80;;;5.30;99.90;;;;;;5094233;28;20177;-69
2023/04/02 10:26:37;;;;;;;7.20;6.50;;;5.40;99.90;;;;;;5094425;28;20562;-69
2023/04/02 10:29:06;;;;;;;9.90;7.00;;;5.30;99.90;;;;;;5095392;28;20154;-69
2023/04/02 10:31:53;;;;;;;7.60;6.80;;;5.30;99.90;;;;;;5096893;28;20261;-68
2023/04/02 10:34:43;;;;;;;7.10;6.50;;;5.30;99.90;;;;;;5095595;28;20557;-69
2023/04/02 10:37:24;;;;;;;8.27;6.60;;;5.30;99.90;;;;;;5095449;28;20244;-69
2023/04/02 10:40:36;;;;;;;7.40;6.20;;;5.30;99.90;;;;;;5094051;28;20234;-68
2023/04/02 10:43:46;;;;;;;9.17;6.30;;;5.40;99.90;;;;;;5094549;28;20191;-72
2023/04/02 10:46:55;;;;;;;6.53;5.93;;;5.40;99.90;;;;;;5092664;28;20172;-68
2023/04/02 10:49:35;;;;;;;8.63;7.07;;;5.40;99.90;;;;;;5090290;28;20660;-69
2023/04/02 10:52:37;;;;;;;8.67;5.77;;;5.30;99.90;;;;;;5093452;28;20168;-67
2023/04/02 10:55:38;;;;;;;10.30;6.40;;;5.40;99.90;;;;;;5093589;28;20187;-68
2023/04/02 10:58:12;;;;;;;7.57;6.87;;;5.40;99.90;;;;;;5085691;28;20207;-67
2023/04/02 11:00:43;;;;;;;6.80;5.93;;;5.40;99.90;;;;;;5093937;28;20674;-72
2023/04/02 11:03:17;;;;;;;8.53;6.87;;;5.40;99.90;;;;;;5093696;28;20521;-69
2023/04/02 11:05:47;;;;;;;6.80;5.97;;;5.40;99.90;;;;;;5092287;28;20188;-70
2023/04/02 11:08:16;;;;;;;10.27;6.47;;;5.50;99.90;;;;;;5093993;28;20196;-69
2023/04/02 11:10:49;;;;;;;6.83;6.10;;;5.40;99.90;;;;;;5093689;28;20679;-76
2023/04/02 11:13:25;;;;;;;7.03;6.30;;;5.40;99.90;;;;;;5094789;28;20153;-73
2023/04/02 11:15:52;;;;;;;7.40;6.70;;;5.40;99.90;;;;;;5094172;28;20161;-67
2023/04/02 11:18:35;;;;;;;6.60;6.00;;;5.40;99.90;;;;;;5092697;28;20208;-72
2023/04/02 11:21:06;;;;;;;6.50;5.97;;;5.40;99.90;;;;;;5093920;28;20699;-76
2023/04/02 11:23:37;;;;;;;8.13;6.20;;;5.40;99.90;;;;;;5095621;28;20187;-76
2023/04/02 11:26:30;;;;;;;7.03;6.00;;;5.30;99.90;;;;;;5096461;28;20307;-72
2023/04/02 11:29:23;;;;;;;6.97;5.70;;;5.30;99.90;;;;;;5094970;28;20177;-72
2023/04/02 11:32:10;;;;;;;5.87;5.37;;;5.40;99.90;;;;;;5092291;28;20547;-72
2023/04/02 11:34:48;;;;;;;6.50;5.90;;;5.40;99.90;;;;;;5094413;28;20196;-72
2023/04/02 11:37:33;;;;;;;6.20;5.70;;;5.50;99.90;;;;;;5097137;28;20176;-72
2023/04/02 11:40:23;;;;;;;7.93;6.53;;;5.50;99.90;;;;;;5096094;28;20189;-72
2023/04/02 11:42:50;;;;;;;6.40;5.80;;;5.50;99.90;;;;;;5089891;28;20211;-72
2023/04/02 11:45:19;;;;;;;6.40;5.80;;;5.60;99.90;;;;;;5095717;28;20188;-72
2023/04/02 11:48:00;;;;;;;6.30;5.70;;;5.60;99.90;;;;;;5097243;28;20177;-72
2023/04/02 11:50:34;;;;;;;6.20;5.60;;;5.60;99.90;;;;;;5096847;28;20189;-72
2023/04/02 11:53:14;;;;;;;8.23;6.03;;;5.60;99.90;;;;;;5096067;28;20554;-66
2023/04/02 11:56:01;;;;;;;6.93;6.33;;;5.60;99.90;;;;;;5097203;28;20153;-69
2023/04/02 11:58:41;;;;;;;6.43;5.83;;;5.60;99.90;;;;;;5095903;28;20189;-69
2023/04/02 12:01:21;;;;;;;6.50;6.00;;;5.70;99.90;;;;;;5095694;28;20283;-69
2023/04/02 12:03:46;;;;;;;6.63;6.03;;;5.70;99.90;;;;;;5095104;28;20168;-72
2023/04/02 12:06:54;;;;;;;8.43;6.47;;;5.60;99.90;;;;;;5096776;28;20191;-72
2023/04/02 12:09:28;;;;;;;7.47;6.63;;;5.60;99.90;;;;;;5088679;28;20201;-69
2023/04/02 12:11:57;;;;;;;9.37;6.23;;;5.60;99.90;;;;;;5094932;28;20173;-74
2023/04/02 12:14:46;;;;;;;6.73;6.00;;;5.70;99.90;;;;;;5096623;28;20561;-70
2023/04/02 12:17:21;;;;;;;6.20;5.70;;;5.60;99.90;;;;;;5096396;28;20633;-69
2023/04/02 12:19:50;;;;;;;7.33;6.30;;;5.60;99.90;;;;;;5095042;28;20189;-70
2023/04/02 12:22:23;;;;;;;6.17;5.57;;;5.60;99.90;;;;;;5095968;28;20673;-69
2023/04/02 12:24:51;;;;;;;6.63;5.73;;;5.60;99.90;;;;;;5094809;28;20687;-69
2023/04/02 12:27:23;;;;;;;8.27;6.40;;;5.70;99.90;;;;;;5095798;28;20204;-69
2023/04/02 12:29:50;;;;;;;7.07;6.27;;;5.70;99.90;;;;;;5096057;28;20277;-70
2023/04/02 12:32:30;;;;;;;6.97;5.67;;;5.70;99.90;;;;;;5094833;28;20227;-70
2023/04/02 12:34:57;;;;;;;6.63;5.97;;;5.70;99.90;;;;;;5096571;28;20173;-70
2023/04/02 12:37:28;;;;;;;7.73;5.87;;;5.70;99.90;;;;;;5095926;28;20173;-71
2023/04/02 12:39:57;;;;;;;6.40;5.63;;;5.80;99.90;;;;;;5096479;28;20654;-71
2023/04/02 12:42:32;;;;;;;6.13;5.53;;;5.80;99.90;;;;;;5094455;28;20176;-71
2023/04/02 12:44:58;;;;;;;6.60;5.70;;;5.90;99.90;;;;;;5095882;28;20244;-72
2023/04/02 12:47:25;;;;;;;5.93;5.43;;;5.90;99.90;;;;;;5094422;28;20204;-72
2023/04/02 12:49:51;;;;;;;6.17;5.67;;;5.90;99.90;;;;;;5095688;28;20196;-72
2023/04/02 12:52:20;;;;;;;6.10;5.50;;;5.90;99.90;;;;;;5094266;28;20188;-73
2023/04/02 12:54:50;;;;;;;5.97;5.17;;;5.90;99.90;;;;;;5095877;28;20189;-72
2023/04/02 12:57:36;;;;;;;7.63;5.27;;;5.90;99.90;;;;;;5096303;28;21155;-73
2023/04/02 13:00:26;;;;;;;6.60;5.83;;;6.00;99.90;;;;;;5095522;28;20558;-69
2023/04/02 13:03:17;;;;;;;6.87;5.67;;;6.00;99.90;;;;;;5094281;28;20163;-70
2023/04/02 13:05:53;;;;;;;7.60;5.13;;;6.10;99.90;;;;;;5095723;28;20165;-70
2023/04/02 13:08:26;;;;;;;6.77;5.67;;;6.10;99.90;;;;;;5094069;28;20197;-70
2023/04/02 13:11:00;;;;;;;6.10;5.50;;;6.10;99.90;;;;;;5093930;28;20189;-70
2023/04/02 13:13:37;;;;;;;5.37;4.87;;;6.10;99.90;;;;;;5095340;28;20157;-70
2023/04/02 13:16:25;;;;;;;6.03;5.43;;;6.20;99.90;;;;;;5095669;28;20260;-70
2023/04/02 13:18:50;;;;;;;6.10;5.60;;;6.20;99.90;;;;;;5093988;28;20165;-70
2023/04/02 13:21:19;;;;;;;5.90;5.40;;;6.30;99.90;;;;;;5093350;28;20322;-70
2023/04/02 13:23:45;;;;;;;6.40;5.60;;;6.30;99.90;;;;;;5094730;28;20616;-70
2023/04/02 13:26:20;;;;;;;7.83;5.50;;;6.30;99.90;;;;;;5094745;28;20260;-70
2023/04/02 13:29:08;;;;;;;6.00;5.53;;;6.40;99.90;;;;;;5094521;28;20155;-70